Time;durP1;ratioP1;P1;durP2;ratioP2;P2;SDS_P1;SDS_P2;PMS_P1;PMS_P2;Temp;Humidity;BMP_temperature;BMP_pressure;BME280_temperature;BME280_humidity;BME280_pressure;Samples;Min_cycle;Max_cycle;Signal;HPM_P1;HPM_P2
2022/06/21 00:01:01;;;;;;;3.80;1.10;;;15.20;56.10;;;;;;5048531;28;20037;-62
2022/06/21 00:03:28;;;;;;;3.70;1.30;;;15.20;56.10;;;;;;5050579;28;20526;-64
2022/06/21 00:05:54;;;;;;;3.00;1.30;;;15.10;56.10;;;;;;5049332;28;20076;-64
2022/06/21 00:08:22;;;;;;;4.93;1.38;;;15.10;56.10;;;;;;5032812;28;20085;-64
2022/06/21 00:10:49;;;;;;;3.00;1.17;;;15.10;56.20;;;;;;5050282;28;20055;-65
2022/06/21 00:13:20;;;;;;;4.55;1.60;;;15.10;56.20;;;;;;5053082;28;20179;-64
2022/06/21 00:15:47;;;;;;;3.60;1.38;;;15.10;56.20;;;;;;5053065;28;20049;-64
2022/06/21 00:18:17;;;;;;;4.22;1.40;;;15.10;56.30;;;;;;5054680;28;20072;-63
2022/06/21 00:20:43;;;;;;;2.78;0.98;;;15.00;56.30;;;;;;5053483;28;20477;-64
2022/06/21 00:23:14;;;;;;;4.35;1.20;;;15.00;56.30;;;;;;5053275;28;20123;-64
2022/06/21 00:25:41;;;;;;;4.90;1.35;;;15.00;56.30;;;;;;5053020;28;20123;-64
2022/06/21 00:28:07;;;;;;;4.18;2.00;;;15.00;56.40;;;;;;5054222;28;20048;-64
2022/06/21 00:30:32;;;;;;;5.43;2.00;;;14.90;56.40;;;;;;5053086;28;20049;-64
2022/06/21 00:32:58;;;;;;;3.85;1.73;;;14.90;56.40;;;;;;5052458;28;20052;-64
2022/06/21 00:35:25;;;;;;;4.90;1.55;;;14.90;56.50;;;;;;5052552;28;20399;-63
2022/06/21 00:37:52;;;;;;;4.00;1.67;;;15.00;56.50;;;;;;5052262;28;20467;-64
2022/06/21 00:40:27;;;;;;;4.15;1.50;;;14.90;56.50;;;;;;5036231;28;20045;-64
2022/06/21 00:43:16;;;;;;;4.63;1.50;;;14.90;56.60;;;;;;5052782;28;20033;-66
2022/06/21 00:45:44;;;;;;;3.67;1.30;;;14.90;56.50;;;;;;5052280;28;20041;-64
2022/06/21 00:48:15;;;;;;;5.30;1.58;;;14.80;56.50;;;;;;5053657;28;20040;-64
2022/06/21 00:50:48;;;;;;;3.65;1.55;;;14.80;56.50;;;;;;5052313;28;20103;-63
2022/06/21 00:53:29;;;;;;;4.75;1.58;;;14.80;56.50;;;;;;5053508;28;20079;-63
2022/06/21 00:55:57;;;;;;;3.65;1.10;;;14.80;56.40;;;;;;5058936;28;20078;-64
2022/06/21 00:58:26;;;;;;;3.15;1.60;;;14.70;56.40;;;;;;5050698;28;20029;-64
2022/06/21 01:01:05;;;;;;;2.35;1.38;;;14.70;56.40;;;;;;5052216;28;20079;-64
2022/06/21 01:03:36;;;;;;;3.17;1.75;;;14.70;56.20;;;;;;5058173;28;20385;-63
2022/06/21 01:06:08;;;;;;;1.75;1.15;;;14.60;56.20;;;;;;5051900;28;20516;-64
2022/06/21 01:08:37;;;;;;;1.73;1.05;;;14.60;56.10;;;;;;5050716;28;20044;-64
2022/06/21 01:11:10;;;;;;;3.22;1.20;;;14.60;56.10;;;;;;5059656;28;20044;-64
2022/06/21 01:13:41;;;;;;;2.38;1.00;;;14.50;56.10;;;;;;5052087;28;20073;-62
2022/06/21 01:16:07;;;;;;;5.30;1.70;;;14.50;56.10;;;;;;5051441;28;20045;-62
2022/06/21 01:18:34;;;;;;;3.47;1.30;;;14.50;56.10;;;;;;5068192;28;20112;-63
2022/06/21 01:21:02;;;;;;;3.33;1.60;;;14.50;56.20;;;;;;5051912;28;20045;-62
2022/06/21 01:23:55;;;;;;;3.60;1.48;;;14.40;56.10;;;;;;5051075;28;20091;-62
2022/06/21 01:26:31;;;;;;;3.80;1.58;;;14.40;56.10;;;;;;5050844;28;20032;-62
2022/06/21 01:28:58;;;;;;;2.63;1.20;;;14.40;56.10;;;;;;5053149;28;20124;-62
2022/06/21 01:31:24;;;;;;;2.90;1.30;;;14.30;56.40;;;;;;5051547;28;20069;-63
2022/06/21 01:33:50;;;;;;;3.45;1.55;;;14.30;56.10;;;;;;5051754;28;20056;-62
2022/06/21 01:36:24;;;;;;;2.78;1.67;;;14.30;56.20;;;;;;5051845;28;20120;-62
2022/06/21 01:38:58;;;;;;;3.22;1.67;;;14.30;56.20;;;;;;5049921;28;20488;-62
2022/06/21 01:41:30;;;;;;;2.85;1.80;;;14.20;56.30;;;;;;5051363;28;20041;-63
2022/06/21 01:44:01;;;;;;;3.80;1.40;;;14.20;56.70;;;;;;5051912;28;20057;-63
2022/06/21 01:46:30;;;;;;;3.47;1.50;;;14.10;56.30;;;;;;5034677;28;20041;-63
2022/06/21 01:49:07;;;;;;;3.22;1.58;;;14.10;56.40;;;;;;5051362;28;20041;-62
2022/06/21 01:51:36;;;;;;;4.03;1.60;;;14.10;56.50;;;;;;5050994;28;20056;-63
2022/06/21 01:54:03;;;;;;;2.50;1.40;;;14.10;56.40;;;;;;5049178;28;20043;-63
2022/06/21 01:56:33;;;;;;;5.03;2.00;;;14.00;56.40;;;;;;5050715;28;20045;-63
2022/06/21 01:59:17;;;;;;;3.47;1.55;;;14.00;56.40;;;;;;5052665;28;20033;-62
2022/06/21 02:01:58;;;;;;;3.72;1.52;;;14.00;56.30;;;;;;5050656;28;20087;-62
2022/06/21 02:04:35;;;;;;;3.70;1.75;;;13.90;56.40;;;;;;5051270;28;20032;-62
2022/06/21 02:07:07;;;;;;;3.10;1.40;;;13.90;56.50;;;;;;5051404;28;20069;-63
2022/06/21 02:09:48;;;;;;;4.10;1.45;;;13.90;56.50;;;;;;5049901;28;20095;-63
2022/06/21 02:12:15;;;;;;;4.90;1.50;;;13.90;56.60;;;;;;5049874;28;20396;-62
2022/06/21 02:14:54;;;;;;;2.97;1.40;;;13.90;56.60;;;;;;5052120;28;20102;-63
2022/06/21 02:17:29;;;;;;;2.40;1.40;;;13.90;56.70;;;;;;5050045;28;20396;-62
2022/06/21 02:20:23;;;;;;;4.65;1.83;;;13.80;56.60;;;;;;5048642;28;20037;-62
2022/06/21 02:22:49;;;;;;;3.20;1.50;;;13.80;56.60;;;;;;5050554;28;20136;-62
2022/06/21 02:25:22;;;;;;;4.32;1.85;;;13.80;56.80;;;;;;5050523;28;20041;-62
2022/06/21 02:27:50;;;;;;;3.65;1.63;;;13.80;56.70;;;;;;5050388;28;20056;-63
2022/06/21 02:30:22;;;;;;;3.25;1.48;;;13.70;56.60;;;;;;5047596;28;20055;-62
2022/06/21 02:32:49;;;;;;;5.20;1.40;;;13.80;56.70;;;;;;5050119;28;20044;-62
2022/06/21 02:35:31;;;;;;;3.67;1.70;;;13.70;56.60;;;;;;5051131;28;20037;-62
2022/06/21 02:38:00;;;;;;;3.65;1.80;;;13.70;56.60;;;;;;5049336;28;20055;-62
2022/06/21 02:40:33;;;;;;;3.20;1.75;;;13.70;56.50;;;;;;5051580;28;20034;-62
2022/06/21 02:43:08;;;;;;;3.25;1.65;;;13.70;56.50;;;;;;5049720;28;20491;-63
2022/06/21 02:45:50;;;;;;;2.80;1.30;;;13.70;56.40;;;;;;5058148;28;20519;-62
2022/06/21 02:48:27;;;;;;;2.25;1.13;;;13.70;56.40;;;;;;5064363;28;20436;-62
2022/06/21 02:51:05;;;;;;;3.20;1.75;;;13.70;56.50;;;;;;5050454;28;20047;-62
2022/06/21 02:53:38;;;;;;;2.33;1.40;;;13.70;56.50;;;;;;5055773;28;20040;-62
2022/06/21 02:56:26;;;;;;;2.30;1.53;;;13.60;56.40;;;;;;5051748;28;20047;-62
2022/06/21 02:58:55;;;;;;;3.47;1.75;;;13.60;56.50;;;;;;5049270;28;20078;-62
2022/06/21 03:01:27;;;;;;;2.85;2.03;;;13.60;56.50;;;;;;5051375;28;20511;-62
2022/06/21 03:03:53;;;;;;;3.17;1.75;;;13.60;56.60;;;;;;5050084;28;20056;-62
2022/06/21 03:06:21;;;;;;;2.63;1.80;;;13.60;56.60;;;;;;5051700;28;20477;-62
2022/06/21 03:09:02;;;;;;;3.10;1.70;;;13.60;56.50;;;;;;5050115;28;20059;-63
2022/06/21 03:11:34;;;;;;;2.67;1.60;;;13.60;56.50;;;;;;5050438;28;20365;-62
2022/06/21 03:14:04;;;;;;;3.67;2.03;;;13.50;56.50;;;;;;5039743;28;20083;-62
2022/06/21 03:16:30;;;;;;;2.58;1.67;;;13.50;56.50;;;;;;5051484;28;20555;-62
2022/06/21 03:19:02;;;;;;;2.03;1.55;;;13.50;56.50;;;;;;5050135;28;20432;-62
2022/06/21 03:21:32;;;;;;;3.15;1.92;;;13.50;56.50;;;;;;5050175;28;20477;-62
2022/06/21 03:24:01;;;;;;;3.85;2.00;;;13.50;56.50;;;;;;5049524;28;20087;-62
2022/06/21 03:26:28;;;;;;;3.88;2.10;;;13.50;56.50;;;;;;5048007;28;20051;-63
2022/06/21 03:28:54;;;;;;;6.88;2.35;;;13.40;56.40;;;;;;5049763;28;20049;-62
2022/06/21 03:31:30;;;;;;;3.38;1.80;;;13.50;56.50;;;;;;5049886;28;20047;-62
2022/06/21 03:34:03;;;;;;;3.17;2.30;;;13.50;56.50;;;;;;5048761;28;20056;-62
2022/06/21 03:36:29;;;;;;;3.85;2.15;;;13.40;56.40;;;;;;5049695;28;20029;-62
2022/06/21 03:39:02;;;;;;;2.50;1.77;;;13.40;56.40;;;;;;5062308;28;20037;-62
2022/06/21 03:41:43;;;;;;;3.38;1.70;;;13.40;56.40;;;;;;5049906;28;20044;-62
2022/06/21 03:44:33;;;;;;;2.70;1.80;;;13.40;56.40;;;;;;5049473;28;20041;-65
2022/06/21 03:47:05;;;;;;;3.20;1.30;;;13.40;56.20;;;;;;5053198;28;20048;-62
2022/06/21 03:49:45;;;;;;;2.75;1.52;;;13.30;56.20;;;;;;5055255;28;20037;-62
2022/06/21 03:55:28;;;;;;;4.05;2.13;;;13.30;56.30;;;;;;5052678;28;20048;-62
2022/06/21 03:58:06;;;;;;;3.35;2.17;;;13.30;56.30;;;;;;5052004;28;20040;-62
2022/06/21 04:00:44;;;;;;;3.60;2.63;;;13.30;56.40;;;;;;5052585;28;20151;-62
2022/06/21 04:03:35;;;;;;;3.88;2.55;;;13.30;56.50;;;;;;5053195;28;20045;-62
2022/06/21 04:06:09;;;;;;;2.95;2.38;;;13.30;56.60;;;;;;5054662;28;20122;-62
2022/06/21 04:08:37;;;;;;;3.67;1.90;;;13.30;56.70;;;;;;5053797;28;20052;-62
2022/06/21 04:11:09;;;;;;;3.63;1.98;;;13.20;56.70;;;;;;5053378;28;20128;-62
2022/06/21 04:13:41;;;;;;;2.60;2.00;;;13.20;56.80;;;;;;5052812;28;20041;-62
2022/06/21 04:16:51;;;;;;;2.72;2.08;;;13.20;57.20;;;;;;5052824;28;20396;-62
2022/06/21 04:19:43;;;;;;;2.60;2.20;;;13.20;56.80;;;;;;5049586;28;20049;-63
2022/06/21 04:22:30;;;;;;;4.40;2.63;;;13.20;57.00;;;;;;5054764;28;20036;-62
2022/06/21 04:25:10;;;;;;;3.42;2.53;;;13.20;57.10;;;;;;5053120;28;20116;-63
2022/06/21 04:27:52;;;;;;;2.60;2.17;;;13.20;57.20;;;;;;5051795;28;20072;-63
2022/06/21 04:30:25;;;;;;;4.32;2.85;;;13.20;57.30;;;;;;5052163;28;20052;-63
2022/06/21 04:33:06;;;;;;;3.28;2.50;;;13.20;57.30;;;;;;5054028;28;20041;-62
2022/06/21 04:35:50;;;;;;;4.50;2.88;;;13.20;57.40;;;;;;5053684;28;20029;-62
2022/06/21 04:38:25;;;;;;;4.65;3.28;;;13.20;58.00;;;;;;5052866;28;20488;-62
2022/06/21 04:40:59;;;;;;;4.95;2.80;;;13.20;57.80;;;;;;5052902;28;20049;-63
2022/06/21 04:43:44;;;;;;;6.43;2.78;;;13.20;58.00;;;;;;5050973;28;20045;-63
2022/06/21 04:46:20;;;;;;;5.47;2.65;;;13.20;58.30;;;;;;5052902;28;20033;-63
2022/06/21 04:49:01;;;;;;;4.97;2.80;;;13.20;58.50;;;;;;5051467;28;20577;-63
2022/06/21 04:51:41;;;;;;;5.10;2.30;;;13.30;58.60;;;;;;5051860;28;20048;-63
2022/06/21 04:54:25;;;;;;;5.40;2.78;;;13.30;59.30;;;;;;5051230;28;20037;-63
2022/06/21 04:56:56;;;;;;;5.63;2.70;;;13.30;59.10;;;;;;5051200;28;20060;-63
2022/06/21 04:59:35;;;;;;;5.97;3.10;;;13.40;59.20;;;;;;5053703;28;20033;-63
2022/06/21 05:02:02;;;;;;;3.97;2.22;;;13.40;59.60;;;;;;5052379;28;20048;-64
2022/06/21 05:04:38;;;;;;;3.60;2.45;;;13.40;59.40;;;;;;5053283;28;20075;-63
2022/06/21 05:07:10;;;;;;;4.13;2.25;;;13.50;59.80;;;;;;5058918;28;20049;-63
2022/06/21 05:09:36;;;;;;;6.88;2.95;;;13.50;60.00;;;;;;5052468;28;20068;-64
2022/06/21 05:12:11;;;;;;;5.28;2.30;;;13.50;60.30;;;;;;5053387;28;20079;-63
2022/06/21 05:14:43;;;;;;;5.55;2.55;;;13.60;60.60;;;;;;5053048;28;20055;-67
2022/06/21 05:17:14;;;;;;;5.72;2.33;;;13.60;60.90;;;;;;5052028;28;20045;-63
2022/06/21 05:19:46;;;;;;;7.22;2.65;;;13.70;61.50;;;;;;5051482;28;20041;-63
2022/06/21 05:22:30;;;;;;;6.43;3.67;;;13.70;61.50;;;;;;5051694;28;20037;-63
2022/06/21 05:24:58;;;;;;;6.35;3.47;;;13.80;62.50;;;;;;5052051;28;20036;-65
2022/06/21 05:27:23;;;;;;;7.45;3.10;;;13.80;62.90;;;;;;5052061;28;20053;-63
2022/06/21 05:29:56;;;;;;;5.38;2.92;;;13.90;63.20;;;;;;5053330;28;20443;-64
2022/06/21 05:32:27;;;;;;;7.70;3.15;;;13.90;63.50;;;;;;5053013;28;20037;-61
2022/06/21 05:34:57;;;;;;;4.55;2.72;;;13.90;64.10;;;;;;5052989;28;20099;-61
2022/06/21 05:37:35;;;;;;;5.20;2.88;;;14.00;64.90;;;;;;5051128;28;20029;-61
2022/06/21 05:40:12;;;;;;;7.35;2.80;;;14.30;65.60;;;;;;5052907;28;20043;-61
2022/06/21 05:42:39;;;;;;;5.90;3.08;;;14.60;65.90;;;;;;5068874;28;20041;-62
2022/06/21 05:45:14;;;;;;;8.25;3.15;;;15.10;65.30;;;;;;5054200;28;20072;-61
2022/06/21 05:47:42;;;;;;;5.75;3.05;;;15.60;64.20;;;;;;5067762;28;20073;-62
2022/06/21 05:50:24;;;;;;;6.95;2.35;;;16.00;63.40;;;;;;5054159;28;20033;-62
2022/06/21 05:52:53;;;;;;;4.95;2.20;;;16.50;62.90;;;;;;5054212;28;20053;-62
2022/06/21 05:55:24;;;;;;;3.72;1.90;;;16.90;62.50;;;;;;5053746;28;20033;-62
2022/06/21 05:57:59;;;;;;;6.88;2.42;;;17.50;61.30;;;;;;5054000;28;20072;-62
2022/06/21 06:00:28;;;;;;;5.07;1.90;;;17.90;59.60;;;;;;5052650;28;20094;-62
2022/06/21 06:03:00;;;;;;;8.25;2.08;;;18.10;59.50;;;;;;5052618;28;20395;-62
2022/06/21 06:05:31;;;;;;;5.00;2.28;;;18.50;59.60;;;;;;5053943;28;20114;-62
2022/06/21 06:08:10;;;;;;;5.22;1.88;;;19.00;58.40;;;;;;5053217;28;20492;-62
2022/06/21 06:10:38;;;;;;;3.70;1.42;;;19.30;56.90;;;;;;5053695;28;20488;-62
2022/06/21 06:13:31;;;;;;;4.00;1.77;;;19.50;56.10;;;;;;5051962;28;20049;-62
2022/06/21 06:16:01;;;;;;;5.90;1.98;;;19.70;55.80;;;;;;5053881;28;20108;-62
2022/06/21 06:18:38;;;;;;;7.22;3.40;;;19.80;55.50;;;;;;5039323;28;20041;-62
2022/06/21 06:21:13;;;;;;;5.25;1.85;;;19.90;55.40;;;;;;5032633;28;20041;-63
2022/06/21 06:23:41;;;;;;;5.45;2.20;;;19.80;55.10;;;;;;5049596;28;20071;-64
2022/06/21 06:26:13;;;;;;;4.90;1.80;;;19.90;54.70;;;;;;5052487;28;20434;-62
2022/06/21 06:28:38;;;;;;;4.25;1.60;;;19.90;54.20;;;;;;5052603;28;20052;-64
2022/06/21 06:31:10;;;;;;;4.15;1.60;;;20.00;54.40;;;;;;5051631;28;20044;-63
2022/06/21 06:33:38;;;;;;;5.35;2.05;;;20.30;54.00;;;;;;5034981;28;20099;-62
2022/06/21 06:36:32;;;;;;;4.15;1.40;;;20.60;53.60;;;;;;5053554;28;20040;-62
2022/06/21 06:39:00;;;;;;;4.35;1.20;;;21.00;53.10;;;;;;5033573;28;20046;-62
2022/06/21 06:41:37;;;;;;;4.38;1.35;;;21.40;51.50;;;;;;5033755;28;20385;-63
2022/06/21 06:44:09;;;;;;;4.40;1.10;;;21.80;49.20;;;;;;5021611;28;20037;-63
2022/06/21 06:46:39;;;;;;;4.88;1.90;;;22.20;48.70;;;;;;5053112;28;20362;-62
2022/06/21 06:49:15;;;;;;;5.25;1.50;;;22.70;48.40;;;;;;5053171;28;20435;-62
2022/06/21 06:51:46;;;;;;;4.20;1.35;;;23.10;47.90;;;;;;5052870;28;20033;-62
2022/06/21 06:54:44;;;;;;;4.53;1.38;;;23.30;46.80;;;;;;5051679;28;20120;-63
2022/06/21 06:57:35;;;;;;;5.30;1.52;;;23.50;45.80;;;;;;5047841;28;20111;-62
2022/06/21 07:00:06;;;;;;;5.05;1.30;;;23.70;45.40;;;;;;5053148;28;20489;-62
2022/06/21 07:02:45;;;;;;;4.07;1.40;;;23.90;44.70;;;;;;5062536;28;20045;-67
2022/06/21 07:05:40;;;;;;;5.30;1.38;;;24.20;44.80;;;;;;5046661;28;20052;-67
2022/06/21 07:08:47;;;;;;;5.35;1.50;;;24.40;44.10;;;;;;5047871;28;20167;-66
2022/06/21 07:11:21;;;;;;;3.50;1.08;;;24.80;43.10;;;;;;5052133;28;20033;-67
2022/06/21 07:13:47;;;;;;;;;;;25.10;42.80;;;;;;5051501;28;20512;-67
2022/06/21 07:16:19;;;;;;;7.40;1.00;;;25.20;44.30;;;;;;5052603;28;20008;-67
2022/06/21 07:18:51;;;;;;;3.80;1.60;;;25.40;42.50;;;;;;5050390;28;20040;-67
2022/06/21 07:21:18;;;;;;;2.63;1.10;;;25.50;42.10;;;;;;5052660;28;20040;-66
2022/06/21 07:23:45;;;;;;;5.35;1.00;;;25.80;41.80;;;;;;5052052;28;20394;-68
2022/06/21 07:26:14;;;;;;;3.83;1.40;;;26.10;41.60;;;;;;5051635;28;20037;-67
2022/06/21 07:28:42;;;;;;;3.67;1.58;;;26.30;41.00;;;;;;5052307;28;21164;-68
2022/06/21 07:31:25;;;;;;;3.78;1.00;;;26.60;40.50;;;;;;5052842;28;20088;-67
2022/06/21 07:33:58;;;;;;;4.07;1.20;;;26.80;39.90;;;;;;5052307;28;20098;-67
2022/06/21 07:36:46;;;;;;;4.38;1.13;;;27.10;39.00;;;;;;5052429;28;20439;-67
2022/06/21 07:39:25;;;;;;;3.83;1.20;;;27.30;39.10;;;;;;5051479;28;20442;-62
2022/06/21 07:41:56;;;;;;;4.80;1.10;;;27.40;38.30;;;;;;5048471;28;20068;-62
2022/06/21 07:44:29;;;;;;;3.53;1.10;;;27.20;38.30;;;;;;5045698;28;20395;-62
2022/06/21 07:47:01;;;;;;;4.32;1.42;;;27.10;38.00;;;;;;5039490;28;20041;-62
2022/06/21 07:49:37;;;;;;;3.38;1.08;;;27.10;38.10;;;;;;5042815;28;20389;-62
2022/06/21 07:52:18;;;;;;;3.45;1.40;;;27.00;37.80;;;;;;5051980;28;20091;-62
2022/06/21 07:54:51;;;;;;;3.90;1.27;;;27.00;38.00;;;;;;5052371;28;20056;-62
2022/06/21 07:57:31;;;;;;;3.10;0.98;;;26.90;38.30;;;;;;5047611;28;20074;-62
2022/06/21 08:00:18;;;;;;;4.40;1.10;;;27.00;38.90;;;;;;5040913;28;20116;-62
2022/06/21 08:08:35;;;;;;;4.35;0.80;;;27.50;38.10;;;;;;5046452;28;20523;-63
2022/06/21 08:11:13;;;;;;;5.75;1.52;;;27.80;37.90;;;;;;5051569;28;20055;-62
2022/06/21 08:13:40;;;;;;;3.05;1.10;;;28.00;37.00;;;;;;5050446;28;20372;-64
2022/06/21 08:16:13;;;;;;;6.35;1.25;;;28.10;37.20;;;;;;5047919;28;20116;-62
2022/06/21 08:18:57;;;;;;;5.05;1.45;;;28.20;37.20;;;;;;5050676;28;20045;-62
2022/06/21 08:21:31;;;;;;;5.93;1.65;;;28.30;37.00;;;;;;5046384;28;20048;-62
2022/06/21 08:24:19;;;;;;;4.45;1.30;;;28.40;36.40;;;;;;5052030;28;20111;-62
2022/06/21 08:26:51;;;;;;;3.72;1.10;;;28.40;37.10;;;;;;5052231;28;20404;-62
2022/06/21 08:29:54;;;;;;;4.55;1.40;;;28.40;36.30;;;;;;5051981;28;20118;-62
2022/06/21 08:32:33;;;;;;;3.67;1.23;;;28.50;36.20;;;;;;5052092;28;20044;-62
2022/06/21 08:35:13;;;;;;;3.08;1.17;;;28.50;36.90;;;;;;5053996;28;20045;-62
2022/06/21 08:37:54;;;;;;;3.47;1.08;;;28.60;36.90;;;;;;5055077;28;20044;-62
2022/06/21 08:40:38;;;;;;;4.30;1.00;;;28.60;36.70;;;;;;5055579;28;20069;-62
2022/06/21 08:43:32;;;;;;;4.38;0.88;;;28.60;36.30;;;;;;5034609;28;20103;-63
2022/06/21 08:46:24;;;;;;;2.45;0.90;;;28.50;36.00;;;;;;5036054;28;20444;-62
2022/06/21 08:49:06;;;;;;;3.97;1.00;;;28.40;36.00;;;;;;5068791;28;20128;-62
2022/06/21 08:51:51;;;;;;;3.53;0.98;;;28.30;35.90;;;;;;5055134;28;20045;-63
2022/06/21 08:54:59;;;;;;;2.58;0.93;;;28.20;36.00;;;;;;5055070;28;20048;-62
2022/06/21 08:57:44;;;;;;;5.82;1.40;;;28.00;36.30;;;;;;5053990;28;20056;-62
2022/06/21 09:00:42;;;;;;;6.65;1.23;;;27.90;36.20;;;;;;5053891;28;20041;-62
2022/06/21 09:03:14;;;;;;;3.45;1.20;;;27.70;36.80;;;;;;5055062;28;20041;-62
2022/06/21 09:06:09;;;;;;;2.95;0.95;;;27.60;36.90;;;;;;5054875;28;20044;-62
2022/06/21 09:08:52;;;;;;;4.28;1.27;;;27.60;37.00;;;;;;5055172;28;20048;-63
2022/06/21 09:11:42;;;;;;;4.30;1.10;;;27.60;36.80;;;;;;5054513;28;20037;-62
2022/06/21 09:14:44;;;;;;;3.25;0.93;;;27.60;37.10;;;;;;5051594;28;20053;-61
2022/06/21 09:17:18;;;;;;;3.95;1.52;;;27.50;37.00;;;;;;5054815;28;20131;-62
2022/06/21 09:20:05;;;;;;;3.90;1.10;;;27.50;36.80;;;;;;5054857;28;20044;-62
2022/06/21 09:23:24;;;;;;;4.25;1.40;;;27.50;37.00;;;;;;5055003;28;20134;-62
2022/06/21 09:25:56;;;;;;;4.22;1.25;;;27.50;37.10;;;;;;4996422;28;20050;-62
2022/06/21 09:28:32;;;;;;;4.15;1.17;;;27.50;36.90;;;;;;5031030;28;20089;-62
2022/06/21 09:31:28;;;;;;;5.45;1.67;;;27.40;36.50;;;;;;5050030;28;20054;-62
2022/06/21 09:34:03;;;;;;;9.02;1.60;;;27.30;36.10;;;;;;5048355;28;20037;-62
2022/06/21 09:36:48;;;;;;;4.25;1.20;;;27.20;37.40;;;;;;5053741;28;20033;-61
2022/06/21 09:39:23;;;;;;;3.22;0.95;;;27.20;37.60;;;;;;5053376;28;20041;-65
2022/06/21 09:41:58;;;;;;;5.05;1.38;;;27.20;37.60;;;;;;5053143;28;20480;-66
2022/06/21 09:44:46;;;;;;;3.90;1.20;;;27.30;37.20;;;;;;5054031;28;20044;-66
2022/06/21 09:47:31;;;;;;;4.45;1.35;;;27.30;36.90;;;;;;5053295;28;20037;-67
2022/06/21 09:50:29;;;;;;;3.85;1.20;;;27.30;37.50;;;;;;5053015;28;20041;-67
2022/06/21 09:53:07;;;;;;;4.40;1.25;;;27.40;37.60;;;;;;5054204;28;20041;-65
2022/06/21 09:55:35;;;;;;;5.10;1.45;;;27.50;37.20;;;;;;5054078;28;20045;-67
2022/06/21 09:58:10;;;;;;;4.70;1.15;;;27.50;37.30;;;;;;5052980;28;20037;-66
2022/06/21 10:00:51;;;;;;;3.63;1.33;;;27.70;36.80;;;;;;5053896;28;20125;-67
2022/06/21 10:03:38;;;;;;;3.80;1.13;;;27.80;36.60;;;;;;5054136;28;20090;-67
2022/06/21 10:06:27;;;;;;;3.05;1.17;;;27.80;36.60;;;;;;5053792;28;20040;-66
2022/06/21 10:09:06;;;;;;;3.72;1.40;;;27.90;35.70;;;;;;5034027;28;20041;-67
2022/06/21 10:12:01;;;;;;;5.55;1.42;;;27.80;36.20;;;;;;5032785;28;20041;-67
2022/06/21 10:15:00;;;;;;;2.03;1.10;;;27.80;36.40;;;;;;5046020;28;20057;-68
2022/06/21 10:17:48;;;;;;;2.55;1.20;;;27.70;35.60;;;;;;5029108;28;20056;-66
2022/06/21 10:20:38;;;;;;;3.53;1.45;;;27.60;36.20;;;;;;5033807;28;20071;-67
2022/06/21 10:23:34;;;;;;;3.10;1.38;;;27.50;35.50;;;;;;5049636;28;20045;-67
2022/06/21 10:26:25;;;;;;;4.95;1.45;;;27.30;35.70;;;;;;5052649;28;20080;-67
2022/06/21 10:28:59;;;;;;;4.00;1.10;;;27.00;36.20;;;;;;5033637;28;20057;-67
2022/06/21 10:31:50;;;;;;;3.60;1.35;;;26.80;36.80;;;;;;5033673;28;20038;-67
2022/06/21 10:34:21;;;;;;;3.97;1.00;;;26.80;37.10;;;;;;5046873;28;20094;-67
2022/06/21 10:36:59;;;;;;;3.72;1.15;;;26.80;37.10;;;;;;5053376;28;20036;-66
2022/06/21 10:39:37;;;;;;;2.40;1.15;;;26.80;36.80;;;;;;5033391;28;20037;-62
2022/06/21 10:45:21;;;;;;;3.33;1.02;;;26.70;36.20;;;;;;5033483;28;20128;-63
2022/06/21 10:48:05;;;;;;;4.32;1.55;;;26.70;36.20;;;;;;5035993;28;20045;-64
2022/06/21 10:50:56;;;;;;;2.70;0.95;;;26.70;36.20;;;;;;5052827;28;20090;-64
2022/06/21 10:53:44;;;;;;;3.33;0.90;;;26.80;36.30;;;;;;5051241;28;20125;-62
2022/06/21 10:59:14;;;;;;;5.25;1.65;;;26.90;35.50;;;;;;5052967;28;20501;-65
2022/06/21 11:02:12;;;;;;;4.00;1.40;;;27.00;34.80;;;;;;5053119;28;20138;-62
2022/06/21 11:04:48;;;;;;;3.08;1.67;;;27.00;35.50;;;;;;5053081;28;20040;-62
2022/06/21 11:07:39;;;;;;;5.03;1.70;;;27.10;35.50;;;;;;5051283;28;20036;-62
2022/06/21 11:10:12;;;;;;;4.68;1.33;;;27.10;35.30;;;;;;5052891;28;20388;-62
2022/06/21 11:13:05;;;;;;;3.42;1.20;;;27.10;36.00;;;;;;5052265;28;20045;-64
2022/06/21 11:15:38;;;;;;;5.65;1.27;;;27.10;36.00;;;;;;5050958;28;20071;-62
2022/06/21 11:18:07;;;;;;;;;;;27.20;35.30;;;;;;5053181;28;20041;-65
2022/06/21 11:20:58;;;;;;;2.75;1.10;;;27.20;35.00;;;;;;5052409;28;19923;-67
2022/06/21 11:23:34;;;;;;;5.15;1.27;;;27.30;34.90;;;;;;5026859;28;20049;-66
2022/06/21 11:26:25;;;;;;;2.75;1.13;;;27.30;34.70;;;;;;5051169;28;20076;-66
2022/06/21 11:29:07;;;;;;;3.20;1.38;;;27.30;33.60;;;;;;5037526;28;20061;-66
2022/06/21 11:31:38;;;;;;;4.03;1.63;;;27.30;34.40;;;;;;5034908;28;20124;-67
2022/06/21 11:34:30;;;;;;;4.80;1.52;;;27.30;34.10;;;;;;5051425;28;20041;-66
2022/06/21 11:37:08;;;;;;;2.78;1.38;;;27.10;35.00;;;;;;5051321;28;20044;-66
2022/06/21 11:39:39;;;;;;;3.13;1.40;;;27.00;35.00;;;;;;5051411;28;20460;-67
2022/06/21 11:42:24;;;;;;;2.15;1.13;;;27.00;35.20;;;;;;5034322;28;20037;-66
2022/06/21 11:45:02;;;;;;;2.38;0.90;;;26.90;35.50;;;;;;5051305;28;20041;-67
2022/06/21 11:48:06;;;;;;;3.35;1.58;;;27.00;35.50;;;;;;5051073;28;20044;-67
2022/06/21 11:50:50;;;;;;;3.50;1.33;;;27.10;35.50;;;;;;5049647;28;20056;-68
2022/06/21 11:53:24;;;;;;;4.75;1.17;;;27.10;35.30;;;;;;5049160;28;20365;-67
2022/06/21 11:56:18;;;;;;;3.05;1.40;;;27.10;34.60;;;;;;5045492;28;20067;-67
2022/06/21 11:58:53;;;;;;;2.90;1.02;;;27.20;35.00;;;;;;5050523;28;20048;-68
2022/06/21 12:01:43;;;;;;;5.82;1.92;;;27.20;34.90;;;;;;5051813;28;20480;-68
2022/06/21 12:04:44;;;;;;;2.70;1.02;;;27.20;35.10;;;;;;5051794;28;20095;-68
2022/06/21 12:07:27;;;;;;;2.65;0.70;;;27.20;34.90;;;;;;5051486;28;20049;-68
2022/06/21 12:09:56;;;;;;;2.50;1.20;;;27.20;35.10;;;;;;5070302;28;20055;-68
2022/06/21 12:12:31;;;;;;;2.80;1.10;;;27.30;34.80;;;;;;5056107;28;20643;-68
2022/06/21 12:15:02;;;;;;;3.15;1.35;;;27.40;34.20;;;;;;5054519;28;20047;-67
2022/06/21 12:17:58;;;;;;;3.50;1.42;;;27.50;34.90;;;;;;5054842;28;20048;-68
2022/06/21 12:20:45;;;;;;;3.50;1.52;;;27.60;33.30;;;;;;5055991;28;20037;-69
2022/06/21 12:23:25;;;;;;;4.38;1.15;;;27.60;33.30;;;;;;5054692;28;20120;-63
2022/06/21 12:25:52;;;;;;;1.23;0.57;;;27.50;32.30;;;;;;5055694;28;20033;-68
2022/06/21 12:28:21;;;;;;;2.65;0.90;;;27.40;32.10;;;;;;5037562;28;20057;-68
2022/06/21 12:30:48;;;;;;;2.22;0.80;;;27.30;31.90;;;;;;5055804;28;20052;-67
2022/06/21 12:33:16;;;;;;;3.42;1.15;;;27.40;33.20;;;;;;5055116;28;20037;-67
2022/06/21 12:35:57;;;;;;;2.35;0.88;;;27.50;32.90;;;;;;5037861;28;20064;-68
2022/06/21 12:38:29;;;;;;;1.88;0.80;;;27.60;34.10;;;;;;5054564;28;20040;-67
2022/06/21 12:41:10;;;;;;;2.75;1.05;;;27.60;33.70;;;;;;5055173;28;20040;-67
2022/06/21 12:43:54;;;;;;;1.88;0.60;;;27.80;34.30;;;;;;5065061;28;20041;-67
2022/06/21 12:46:27;;;;;;;;;;;27.90;34.20;;;;;;5055867;28;20045;-68
2022/06/21 12:49:09;;;;;;;0.98;0.50;;;28.00;34.60;;;;;;5055583;28;20434;-68
2022/06/21 12:52:05;;;;;;;3.15;0.95;;;28.20;34.60;;;;;;5053711;28;20045;-68
2022/06/21 12:54:37;;;;;;;2.17;1.08;;;28.40;34.40;;;;;;5055188;28;20095;-68
2022/06/21 12:57:20;;;;;;;2.88;0.70;;;28.50;34.30;;;;;;5055445;28;20037;-68
2022/06/21 13:00:17;;;;;;;2.85;1.20;;;28.70;34.30;;;;;;5054026;28;20559;-68
2022/06/21 13:03:04;;;;;;;3.13;1.45;;;28.80;32.80;;;;;;5055219;28;20527;-68
2022/06/21 13:05:45;;;;;;;2.78;1.20;;;28.90;32.10;;;;;;5055150;28;20041;-67
2022/06/21 13:08:54;;;;;;;4.07;1.00;;;28.80;32.70;;;;;;5053292;28;20076;-68
2022/06/21 13:12:05;;;;;;;3.10;0.80;;;28.90;33.70;;;;;;5053154;28;20040;-68
2022/06/21 13:14:42;;;;;;;1.70;0.90;;;28.90;33.70;;;;;;5043889;28;20056;-68
2022/06/21 13:17:31;;;;;;;4.28;1.02;;;28.90;33.40;;;;;;5050808;28;20098;-68
2022/06/21 13:20:20;;;;;;;3.53;0.93;;;29.00;33.90;;;;;;5050553;28;20485;-67
2022/06/21 13:23:11;;;;;;;3.15;1.00;;;29.10;34.10;;;;;;5028514;28;20134;-67
2022/06/21 13:25:51;;;;;;;2.75;0.82;;;29.10;33.70;;;;;;5053534;28;20536;-68
2022/06/21 13:28:17;;;;;;;1.10;0.68;;;29.20;33.30;;;;;;5054596;28;20434;-67
2022/06/21 13:31:00;;;;;;;2.45;0.90;;;29.20;33.10;;;;;;5054233;28;20029;-68
2022/06/21 13:33:32;;;;;;;4.15;0.85;;;29.20;33.20;;;;;;5053828;28;20128;-68
2022/06/21 13:36:12;;;;;;;2.67;0.90;;;29.20;32.80;;;;;;5054532;28;20079;-67
2022/06/21 13:38:55;;;;;;;3.13;1.05;;;29.20;32.60;;;;;;5053319;28;20044;-68
2022/06/21 13:44:29;;;;;;;4.38;1.00;;;29.30;32.30;;;;;;5053648;28;20155;-68
2022/06/21 13:47:19;;;;;;;3.77;1.03;;;29.30;31.70;;;;;;5054391;28;20047;-68
2022/06/21 13:50:01;;;;;;;2.90;1.50;;;29.30;32.90;;;;;;5054385;28;20041;-68
2022/06/21 13:52:33;;;;;;;2.08;0.70;;;29.20;32.60;;;;;;5054501;28;20120;-68
2022/06/21 13:55:33;;;;;;;3.63;1.23;;;29.10;33.10;;;;;;5053865;28;20037;-68
2022/06/21 13:58:39;;;;;;;3.58;0.90;;;29.20;33.90;;;;;;5034169;28;20497;-68
2022/06/21 14:01:10;;;;;;;2.38;0.80;;;29.20;33.90;;;;;;5032437;28;20058;-67